sensor_id;sensor_type;location;lat;lon;timestamp;P1;durP1;ratioP1;P2;durP2;ratioP2
70406;SDS011;57821;52.202;0.154;2023-04-24T00:01:02;17.40;;;9.45;;
70406;SDS011;57821;52.202;0.154;2023-04-24T00:03:28;15.95;;;9.80;;
70406;SDS011;57821;52.202;0.154;2023-04-24T00:05:56;15.18;;;9.75;;
70406;SDS011;57821;52.202;0.154;2023-04-24T00:08:22;20.27;;;9.50;;
70406;SDS011;57821;52.202;0.154;2023-04-24T00:10:49;17.38;;;9.73;;
70406;SDS011;57821;52.202;0.154;2023-04-24T00:13:15;17.15;;;9.23;;
70406;SDS011;57821;52.202;0.154;2023-04-24T00:15:42;18.55;;;9.98;;
70406;SDS011;57821;52.202;0.154;2023-04-24T00:18:08;20.08;;;9.65;;
70406;SDS011;57821;52.202;0.154;2023-04-24T00:20:35;15.98;;;9.32;;
70406;SDS011;57821;52.202;0.154;2023-04-24T00:23:02;23.92;;;10.23;;
70406;SDS011;57821;52.202;0.154;2023-04-24T00:25:28;23.77;;;10.95;;
70406;SDS011;57821;52.202;0.154;2023-04-24T00:27:55;22.10;;;11.23;;
70406;SDS011;57821;52.202;0.154;2023-04-24T00:30:22;21.38;;;10.75;;
70406;SDS011;57821;52.202;0.154;2023-04-24T00:32:50;23.67;;;10.88;;
70406;SDS011;57821;52.202;0.154;2023-04-24T00:35:16;20.02;;;9.75;;
70406;SDS011;57821;52.202;0.154;2023-04-24T00:37:43;19.50;;;10.48;;
70406;SDS011;57821;52.202;0.154;2023-04-24T00:40:10;20.20;;;10.38;;
70406;SDS011;57821;52.202;0.154;2023-04-24T00:42:37;22.48;;;9.63;;
70406;SDS011;57821;52.202;0.154;2023-04-24T00:45:04;18.17;;;9.50;;
70406;SDS011;57821;52.202;0.154;2023-04-24T00:47:32;20.05;;;10.15;;
70406;SDS011;57821;52.202;0.154;2023-04-24T00:50:03;21.05;;;9.82;;
70406;SDS011;57821;52.202;0.154;2023-04-24T00:54:58;22.05;;;10.18;;
70406;SDS011;57821;52.202;0.154;2023-04-24T00:57:25;20.63;;;10.05;;
70406;SDS011;57821;52.202;0.154;2023-04-24T00:59:52;18.58;;;9.25;;
70406;SDS011;57821;52.202;0.154;2023-04-24T01:02:19;23.08;;;9.77;;
70406;SDS011;57821;52.202;0.154;2023-04-24T01:04:46;17.23;;;8.98;;
70406;SDS011;57821;52.202;0.154;2023-04-24T01:07:12;19.05;;;9.35;;
70406;SDS011;57821;52.202;0.154;2023-04-24T01:09:42;21.60;;;10.27;;
70406;SDS011;57821;52.202;0.154;2023-04-24T01:12:12;17.02;;;8.95;;
70406;SDS011;57821;52.202;0.154;2023-04-24T01:14:39;25.73;;;9.95;;
70406;SDS011;57821;52.202;0.154;2023-04-24T01:17:07;21.40;;;9.75;;
70406;SDS011;57821;52.202;0.154;2023-04-24T01:19:33;18.55;;;7.93;;
70406;SDS011;57821;52.202;0.154;2023-04-24T01:22:01;18.13;;;9.27;;
70406;SDS011;57821;52.202;0.154;2023-04-24T01:24:29;22.27;;;9.65;;
70406;SDS011;57821;52.202;0.154;2023-04-24T01:26:56;19.63;;;9.00;;
70406;SDS011;57821;52.202;0.154;2023-04-24T01:29:23;20.50;;;8.50;;
70406;SDS011;57821;52.202;0.154;2023-04-24T01:31:50;23.33;;;8.35;;
70406;SDS011;57821;52.202;0.154;2023-04-24T01:34:16;20.63;;;7.40;;
70406;SDS011;57821;52.202;0.154;2023-04-24T01:36:44;19.83;;;8.80;;
70406;SDS011;57821;52.202;0.154;2023-04-24T01:39:12;20.10;;;7.25;;
70406;SDS011;57821;52.202;0.154;2023-04-24T01:41:39;18.17;;;7.00;;
70406;SDS011;57821;52.202;0.154;2023-04-24T01:44:06;22.77;;;6.53;;
70406;SDS011;57821;52.202;0.154;2023-04-24T01:46:34;17.25;;;6.78;;
70406;SDS011;57821;52.202;0.154;2023-04-24T01:49:03;16.25;;;6.05;;
70406;SDS011;57821;52.202;0.154;2023-04-24T01:51:30;20.90;;;6.47;;
70406;SDS011;57821;52.202;0.154;2023-04-24T01:53:56;16.65;;;6.45;;
70406;SDS011;57821;52.202;0.154;2023-04-24T01:56:23;16.30;;;5.63;;
70406;SDS011;57821;52.202;0.154;2023-04-24T01:58:53;18.20;;;6.13;;
70406;SDS011;57821;52.202;0.154;2023-04-24T02:01:25;15.02;;;6.35;;
70406;SDS011;57821;52.202;0.154;2023-04-24T02:03:52;15.98;;;5.43;;
70406;SDS011;57821;52.202;0.154;2023-04-24T02:06:19;30.50;;;8.00;;
70406;SDS011;57821;52.202;0.154;2023-04-24T02:08:46;15.63;;;4.97;;
70406;SDS011;57821;52.202;0.154;2023-04-24T02:11:12;18.25;;;5.15;;
70406;SDS011;57821;52.202;0.154;2023-04-24T02:13:38;18.67;;;5.10;;
70406;SDS011;57821;52.202;0.154;2023-04-24T02:16:05;15.60;;;4.60;;
70406;SDS011;57821;52.202;0.154;2023-04-24T02:18:32;17.52;;;5.25;;
70406;SDS011;57821;52.202;0.154;2023-04-24T02:20:58;25.85;;;5.43;;
70406;SDS011;57821;52.202;0.154;2023-04-24T02:23:25;21.10;;;4.90;;
70406;SDS011;57821;52.202;0.154;2023-04-24T02:25:51;15.77;;;4.95;;
70406;SDS011;57821;52.202;0.154;2023-04-24T02:28:18;17.55;;;4.72;;
70406;SDS011;57821;52.202;0.154;2023-04-24T02:30:45;16.50;;;5.38;;
70406;SDS011;57821;52.202;0.154;2023-04-24T02:33:12;12.77;;;3.83;;
70406;SDS011;57821;52.202;0.154;2023-04-24T02:35:39;17.60;;;4.38;;
70406;SDS011;57821;52.202;0.154;2023-04-24T02:38:05;17.13;;;4.50;;
70406;SDS011;57821;52.202;0.154;2023-04-24T02:40:32;17.63;;;4.45;;
70406;SDS011;57821;52.202;0.154;2023-04-24T02:42:59;11.18;;;3.67;;
70406;SDS011;57821;52.202;0.154;2023-04-24T02:45:26;20.85;;;3.63;;
70406;SDS011;57821;52.202;0.154;2023-04-24T02:47:52;15.65;;;5.07;;
70406;SDS011;57821;52.202;0.154;2023-04-24T02:50:19;21.20;;;3.75;;
70406;SDS011;57821;52.202;0.154;2023-04-24T02:52:45;14.48;;;4.88;;
70406;SDS011;57821;52.202;0.154;2023-04-24T02:55:12;15.88;;;3.33;;
70406;SDS011;57821;52.202;0.154;2023-04-24T02:57:39;15.35;;;3.92;;
70406;SDS011;57821;52.202;0.154;2023-04-24T03:00:06;15.35;;;4.35;;
70406;SDS011;57821;52.202;0.154;2023-04-24T03:02:33;18.42;;;3.60;;
70406;SDS011;57821;52.202;0.154;2023-04-24T03:04:59;19.20;;;4.20;;
70406;SDS011;57821;52.202;0.154;2023-04-24T03:07:26;17.65;;;4.55;;
70406;SDS011;57821;52.202;0.154;2023-04-24T03:09:52;14.70;;;4.57;;
70406;SDS011;57821;52.202;0.154;2023-04-24T03:12:19;15.85;;;4.20;;
70406;SDS011;57821;52.202;0.154;2023-04-24T03:14:46;16.77;;;4.38;;
70406;SDS011;57821;52.202;0.154;2023-04-24T03:17:12;15.93;;;4.30;;
70406;SDS011;57821;52.202;0.154;2023-04-24T03:19:39;15.25;;;3.67;;
70406;SDS011;57821;52.202;0.154;2023-04-24T03:22:09;15.55;;;4.03;;
70406;SDS011;57821;52.202;0.154;2023-04-24T03:24:36;18.75;;;4.50;;
70406;SDS011;57821;52.202;0.154;2023-04-24T03:27:03;14.63;;;3.90;;
70406;SDS011;57821;52.202;0.154;2023-04-24T03:29:50;12.88;;;3.63;;
70406;SDS011;57821;52.202;0.154;2023-04-24T03:32:17;12.30;;;4.00;;
70406;SDS011;57821;52.202;0.154;2023-04-24T03:34:46;14.85;;;4.13;;
70406;SDS011;57821;52.202;0.154;2023-04-24T03:37:14;16.23;;;3.70;;
70406;SDS011;57821;52.202;0.154;2023-04-24T03:39:47;10.90;;;3.60;;
70406;SDS011;57821;52.202;0.154;2023-04-24T03:42:16;16.88;;;3.97;;
70406;SDS011;57821;52.202;0.154;2023-04-24T03:44:50;14.88;;;3.85;;
70406;SDS011;57821;52.202;0.154;2023-04-24T03:47:21;11.57;;;3.53;;
70406;SDS011;57821;52.202;0.154;2023-04-24T03:49:49;10.88;;;3.28;;
70406;SDS011;57821;52.202;0.154;2023-04-24T03:52:15;12.32;;;3.40;;
70406;SDS011;57821;52.202;0.154;2023-04-24T03:54:42;23.27;;;4.53;;
70406;SDS011;57821;52.202;0.154;2023-04-24T03:57:10;23.17;;;4.07;;
70406;SDS011;57821;52.202;0.154;2023-04-24T03:59:44;22.30;;;5.70;;
70406;SDS011;57821;52.202;0.154;2023-04-24T04:04:42;10.57;;;3.03;;
70406;SDS011;57821;52.202;0.154;2023-04-24T04:07:09;16.17;;;3.72;;
70406;SDS011;57821;52.202;0.154;2023-04-24T04:09:36;10.23;;;3.17;;
70406;SDS011;57821;52.202;0.154;2023-04-24T04:12:05;14.88;;;3.38;;
70406;SDS011;57821;52.202;0.154;2023-04-24T04:14:33;9.32;;;2.83;;
70406;SDS011;57821;52.202;0.154;2023-04-24T04:16:59;15.70;;;3.20;;
70406;SDS011;57821;52.202;0.154;2023-04-24T04:19:26;13.65;;;2.85;;
70406;SDS011;57821;52.202;0.154;2023-04-24T04:21:53;11.38;;;3.10;;
70406;SDS011;57821;52.202;0.154;2023-04-24T04:24:43;13.52;;;3.00;;
70406;SDS011;57821;52.202;0.154;2023-04-24T04:27:10;12.18;;;2.88;;
70406;SDS011;57821;52.202;0.154;2023-04-24T04:30:02;14.07;;;2.72;;
70406;SDS011;57821;52.202;0.154;2023-04-24T04:32:35;10.73;;;2.33;;
70406;SDS011;57821;52.202;0.154;2023-04-24T04:35:03;10.07;;;3.05;;
70406;SDS011;57821;52.202;0.154;2023-04-24T04:37:32;8.05;;;2.35;;
70406;SDS011;57821;52.202;0.154;2023-04-24T04:40:22;7.50;;;2.70;;
70406;SDS011;57821;52.202;0.154;2023-04-24T04:42:55;12.38;;;2.65;;
70406;SDS011;57821;52.202;0.154;2023-04-24T04:45:23;10.48;;;2.63;;
70406;SDS011;57821;52.202;0.154;2023-04-24T04:48:12;12.57;;;3.70;;
70406;SDS011;57821;52.202;0.154;2023-04-24T04:50:40;9.60;;;2.50;;
70406;SDS011;57821;52.202;0.154;2023-04-24T04:53:07;11.18;;;3.13;;
70406;SDS011;57821;52.202;0.154;2023-04-24T04:55:37;13.07;;;3.03;;
70406;SDS011;57821;52.202;0.154;2023-04-24T04:58:14;11.35;;;3.00;;
70406;SDS011;57821;52.202;0.154;2023-04-24T05:00:42;27.25;;;3.80;;
70406;SDS011;57821;52.202;0.154;2023-04-24T05:03:25;10.07;;;2.25;;
70406;SDS011;57821;52.202;0.154;2023-04-24T05:06:01;11.55;;;2.95;;
70406;SDS011;57821;52.202;0.154;2023-04-24T05:08:31;11.80;;;2.28;;
70406;SDS011;57821;52.202;0.154;2023-04-24T05:10:58;9.45;;;2.80;;
70406;SDS011;57821;52.202;0.154;2023-04-24T05:13:27;14.50;;;2.40;;
70406;SDS011;57821;52.202;0.154;2023-04-24T05:16:08;9.43;;;2.05;;
70406;SDS011;57821;52.202;0.154;2023-04-24T05:18:35;14.18;;;2.70;;
70406;SDS011;57821;52.202;0.154;2023-04-24T05:21:02;15.77;;;2.70;;
70406;SDS011;57821;52.202;0.154;2023-04-24T05:23:29;9.57;;;2.35;;
70406;SDS011;57821;52.202;0.154;2023-04-24T05:25:56;13.95;;;3.42;;
70406;SDS011;57821;52.202;0.154;2023-04-24T05:28:23;9.65;;;2.55;;
70406;SDS011;57821;52.202;0.154;2023-04-24T05:31:02;10.02;;;2.70;;
70406;SDS011;57821;52.202;0.154;2023-04-24T05:33:29;9.48;;;3.03;;
70406;SDS011;57821;52.202;0.154;2023-04-24T05:35:56;12.77;;;2.85;;
70406;SDS011;57821;52.202;0.154;2023-04-24T05:38:22;11.20;;;2.53;;
70406;SDS011;57821;52.202;0.154;2023-04-24T05:40:49;9.80;;;2.85;;
70406;SDS011;57821;52.202;0.154;2023-04-24T05:43:16;13.05;;;2.72;;
70406;SDS011;57821;52.202;0.154;2023-04-24T05:45:42;9.80;;;2.47;;
70406;SDS011;57821;52.202;0.154;2023-04-24T05:48:09;11.88;;;2.75;;
70406;SDS011;57821;52.202;0.154;2023-04-24T05:50:36;9.70;;;2.65;;
70406;SDS011;57821;52.202;0.154;2023-04-24T05:53:03;9.95;;;2.55;;
70406;SDS011;57821;52.202;0.154;2023-04-24T05:55:36;9.80;;;2.30;;
70406;SDS011;57821;52.202;0.154;2023-04-24T05:58:03;8.82;;;2.30;;
70406;SDS011;57821;52.202;0.154;2023-04-24T06:00:32;10.80;;;3.00;;
70406;SDS011;57821;52.202;0.154;2023-04-24T06:03:04;10.98;;;2.67;;
70406;SDS011;57821;52.202;0.154;2023-04-24T06:05:31;11.55;;;3.63;;
70406;SDS011;57821;52.202;0.154;2023-04-24T06:07:58;8.98;;;2.28;;
70406;SDS011;57821;52.202;0.154;2023-04-24T06:10:29;14.70;;;2.88;;
70406;SDS011;57821;52.202;0.154;2023-04-24T06:12:56;8.30;;;2.28;;
70406;SDS011;57821;52.202;0.154;2023-04-24T06:15:23;11.00;;;2.47;;
70406;SDS011;57821;52.202;0.154;2023-04-24T06:17:54;19.60;;;2.78;;
70406;SDS011;57821;52.202;0.154;2023-04-24T06:20:21;14.88;;;2.70;;
70406;SDS011;57821;52.202;0.154;2023-04-24T06:22:48;9.27;;;2.10;;
70406;SDS011;57821;52.202;0.154;2023-04-24T06:25:14;9.68;;;2.00;;
70406;SDS011;57821;52.202;0.154;2023-04-24T06:27:42;10.88;;;2.80;;
70406;SDS011;57821;52.202;0.154;2023-04-24T06:30:09;12.00;;;3.38;;
70406;SDS011;57821;52.202;0.154;2023-04-24T06:32:35;13.30;;;2.58;;
70406;SDS011;57821;52.202;0.154;2023-04-24T06:35:02;11.50;;;2.33;;
70406;SDS011;57821;52.202;0.154;2023-04-24T06:37:30;10.07;;;2.40;;
70406;SDS011;57821;52.202;0.154;2023-04-24T06:39:56;8.73;;;2.20;;
70406;SDS011;57821;52.202;0.154;2023-04-24T06:42:23;10.55;;;2.30;;
70406;SDS011;57821;52.202;0.154;2023-04-24T06:44:49;14.32;;;2.42;;
70406;SDS011;57821;52.202;0.154;2023-04-24T06:47:16;10.10;;;2.13;;
70406;SDS011;57821;52.202;0.154;2023-04-24T06:49:43;13.88;;;2.63;;
70406;SDS011;57821;52.202;0.154;2023-04-24T06:52:10;8.20;;;1.77;;
70406;SDS011;57821;52.202;0.154;2023-04-24T06:54:36;11.80;;;1.90;;
70406;SDS011;57821;52.202;0.154;2023-04-24T06:57:03;16.23;;;3.15;;
70406;SDS011;57821;52.202;0.154;2023-04-24T06:59:29;9.13;;;1.75;;
70406;SDS011;57821;52.202;0.154;2023-04-24T07:01:56;14.90;;;2.33;;
70406;SDS011;57821;52.202;0.154;2023-04-24T07:04:23;10.98;;;1.50;;
70406;SDS011;57821;52.202;0.154;2023-04-24T07:06:50;44.88;;;4.05;;
70406;SDS011;57821;52.202;0.154;2023-04-24T07:09:16;12.32;;;1.77;;
70406;SDS011;57821;52.202;0.154;2023-04-24T07:11:44;9.00;;;1.50;;
70406;SDS011;57821;52.202;0.154;2023-04-24T07:14:11;6.35;;;1.40;;
70406;SDS011;57821;52.202;0.154;2023-04-24T07:16:38;7.15;;;1.48;;
70406;SDS011;57821;52.202;0.154;2023-04-24T07:19:05;6.10;;;1.38;;
70406;SDS011;57821;52.202;0.154;2023-04-24T07:21:32;9.40;;;1.50;;
70406;SDS011;57821;52.202;0.154;2023-04-24T07:23:58;7.88;;;1.63;;
70406;SDS011;57821;52.202;0.154;2023-04-24T07:26:25;8.75;;;1.85;;
70406;SDS011;57821;52.202;0.154;2023-04-24T07:28:53;5.60;;;1.20;;
70406;SDS011;57821;52.202;0.154;2023-04-24T07:31:19;8.25;;;1.42;;
70406;SDS011;57821;52.202;0.154;2023-04-24T07:33:46;6.85;;;1.50;;
70406;SDS011;57821;52.202;0.154;2023-04-24T07:36:12;9.23;;;1.50;;
70406;SDS011;57821;52.202;0.154;2023-04-24T07:38:39;6.93;;;1.15;;
70406;SDS011;57821;52.202;0.154;2023-04-24T07:41:06;7.15;;;1.25;;
70406;SDS011;57821;52.202;0.154;2023-04-24T07:43:32;7.50;;;1.40;;
70406;SDS011;57821;52.202;0.154;2023-04-24T07:45:59;8.60;;;1.40;;
70406;SDS011;57821;52.202;0.154;2023-04-24T07:48:25;6.70;;;1.60;;
70406;SDS011;57821;52.202;0.154;2023-04-24T07:50:52;5.45;;;1.42;;
70406;SDS011;57821;52.202;0.154;2023-04-24T07:53:19;8.48;;;1.13;;
70406;SDS011;57821;52.202;0.154;2023-04-24T07:55:46;6.05;;;1.17;;
70406;SDS011;57821;52.202;0.154;2023-04-24T07:58:13;9.05;;;1.48;;
70406;SDS011;57821;52.202;0.154;2023-04-24T08:00:39;7.15;;;1.35;;
70406;SDS011;57821;52.202;0.154;2023-04-24T08:03:06;5.82;;;1.23;;
70406;SDS011;57821;52.202;0.154;2023-04-24T08:05:33;7.70;;;1.50;;
70406;SDS011;57821;52.202;0.154;2023-04-24T08:08:00;8.95;;;1.48;;
70406;SDS011;57821;52.202;0.154;2023-04-24T08:10:26;5.80;;;1.40;;
70406;SDS011;57821;52.202;0.154;2023-04-24T08:12:53;6.07;;;1.00;;
70406;SDS011;57821;52.202;0.154;2023-04-24T08:15:20;10.13;;;1.33;;
70406;SDS011;57821;52.202;0.154;2023-04-24T08:17:47;5.72;;;1.25;;
70406;SDS011;57821;52.202;0.154;2023-04-24T08:20:14;7.80;;;1.50;;
70406;SDS011;57821;52.202;0.154;2023-04-24T08:22:41;9.20;;;1.65;;
70406;SDS011;57821;52.202;0.154;2023-04-24T08:25:09;10.50;;;1.30;;
70406;SDS011;57821;52.202;0.154;2023-04-24T08:27:36;9.55;;;1.60;;
70406;SDS011;57821;52.202;0.154;2023-04-24T08:30:03;10.15;;;2.03;;
70406;SDS011;57821;52.202;0.154;2023-04-24T08:32:31;8.48;;;1.48;;
70406;SDS011;57821;52.202;0.154;2023-04-24T08:34:58;5.00;;;1.25;;
70406;SDS011;57821;52.202;0.154;2023-04-24T08:37:26;10.57;;;1.75;;
70406;SDS011;57821;52.202;0.154;2023-04-24T08:39:53;7.38;;;1.63;;
70406;SDS011;57821;52.202;0.154;2023-04-24T08:42:20;6.57;;;1.40;;
70406;SDS011;57821;52.202;0.154;2023-04-24T08:44:48;6.43;;;1.38;;
70406;SDS011;57821;52.202;0.154;2023-04-24T08:47:15;5.72;;;1.20;;
70406;SDS011;57821;52.202;0.154;2023-04-24T08:49:42;4.93;;;1.08;;
70406;SDS011;57821;52.202;0.154;2023-04-24T08:52:10;8.30;;;1.60;;
70406;SDS011;57821;52.202;0.154;2023-04-24T08:54:36;6.03;;;1.80;;
70406;SDS011;57821;52.202;0.154;2023-04-24T08:57:03;8.98;;;1.52;;
70406;SDS011;57821;52.202;0.154;2023-04-24T08:59:30;10.45;;;1.50;;
70406;SDS011;57821;52.202;0.154;2023-04-24T09:01:58;6.40;;;1.70;;
70406;SDS011;57821;52.202;0.154;2023-04-24T09:04:25;6.88;;;1.25;;
70406;SDS011;57821;52.202;0.154;2023-04-24T09:06:55;7.95;;;1.35;;
70406;SDS011;57821;52.202;0.154;2023-04-24T09:09:23;6.90;;;1.60;;
70406;SDS011;57821;52.202;0.154;2023-04-24T09:11:51;9.57;;;1.33;;
70406;SDS011;57821;52.202;0.154;2023-04-24T09:14:19;7.40;;;1.50;;
70406;SDS011;57821;52.202;0.154;2023-04-24T09:16:46;7.57;;;1.45;;
70406;SDS011;57821;52.202;0.154;2023-04-24T09:19:13;7.78;;;1.48;;
70406;SDS011;57821;52.202;0.154;2023-04-24T09:21:39;7.05;;;1.40;;
70406;SDS011;57821;52.202;0.154;2023-04-24T09:24:06;8.35;;;1.10;;
70406;SDS011;57821;52.202;0.154;2023-04-24T09:26:35;10.10;;;1.70;;
70406;SDS011;57821;52.202;0.154;2023-04-24T09:29:03;6.32;;;1.58;;
70406;SDS011;57821;52.202;0.154;2023-04-24T09:31:30;7.50;;;1.80;;
70406;SDS011;57821;52.202;0.154;2023-04-24T09:33:58;6.72;;;1.70;;
70406;SDS011;57821;52.202;0.154;2023-04-24T09:36:31;9.45;;;1.92;;
70406;SDS011;57821;52.202;0.154;2023-04-24T09:39:01;6.18;;;1.45;;
70406;SDS011;57821;52.202;0.154;2023-04-24T09:41:28;7.82;;;1.90;;
70406;SDS011;57821;52.202;0.154;2023-04-24T09:43:55;6.72;;;1.42;;
70406;SDS011;57821;52.202;0.154;2023-04-24T09:46:30;10.20;;;1.63;;
70406;SDS011;57821;52.202;0.154;2023-04-24T09:48:57;6.13;;;1.52;;
70406;SDS011;57821;52.202;0.154;2023-04-24T09:51:33;8.45;;;1.45;;
70406;SDS011;57821;52.202;0.154;2023-04-24T09:54:00;6.35;;;1.45;;
70406;SDS011;57821;52.202;0.154;2023-04-24T09:56:27;5.45;;;1.13;;
70406;SDS011;57821;52.202;0.154;2023-04-24T09:58:54;6.55;;;1.65;;
70406;SDS011;57821;52.202;0.154;2023-04-24T10:01:30;9.70;;;1.40;;
70406;SDS011;57821;52.202;0.154;2023-04-24T10:03:57;5.65;;;1.00;;
70406;SDS011;57821;52.202;0.154;2023-04-24T10:06:29;7.80;;;1.70;;
70406;SDS011;57821;52.202;0.154;2023-04-24T10:09:00;5.53;;;1.50;;
70406;SDS011;57821;52.202;0.154;2023-04-24T10:11:27;10.35;;;1.88;;
70406;SDS011;57821;52.202;0.154;2023-04-24T10:13:54;7.65;;;1.67;;
70406;SDS011;57821;52.202;0.154;2023-04-24T10:16:21;7.78;;;1.70;;
70406;SDS011;57821;52.202;0.154;2023-04-24T10:18:49;11.27;;;1.73;;
70406;SDS011;57821;52.202;0.154;2023-04-24T10:21:16;4.57;;;1.42;;
70406;SDS011;57821;52.202;0.154;2023-04-24T10:23:43;8.23;;;1.48;;
70406;SDS011;57821;52.202;0.154;2023-04-24T10:26:10;9.43;;;1.63;;
70406;SDS011;57821;52.202;0.154;2023-04-24T10:28:38;7.72;;;1.80;;
70406;SDS011;57821;52.202;0.154;2023-04-24T10:31:07;7.53;;;1.80;;
70406;SDS011;57821;52.202;0.154;2023-04-24T10:33:38;6.77;;;2.00;;
70406;SDS011;57821;52.202;0.154;2023-04-24T10:36:07;8.00;;;1.73;;
70406;SDS011;57821;52.202;0.154;2023-04-24T10:38:36;4.72;;;1.83;;
70406;SDS011;57821;52.202;0.154;2023-04-24T10:41:09;9.93;;;2.35;;
70406;SDS011;57821;52.202;0.154;2023-04-24T10:46:05;6.07;;;1.60;;
70406;SDS011;57821;52.202;0.154;2023-04-24T10:48:33;6.20;;;2.05;;
70406;SDS011;57821;52.202;0.154;2023-04-24T10:50:59;10.32;;;2.72;;
70406;SDS011;57821;52.202;0.154;2023-04-24T10:53:28;7.10;;;2.25;;
70406;SDS011;57821;52.202;0.154;2023-04-24T10:58:36;8.75;;;1.83;;
70406;SDS011;57821;52.202;0.154;2023-04-24T11:01:07;6.93;;;1.80;;
70406;SDS011;57821;52.202;0.154;2023-04-24T11:03:34;9.18;;;2.38;;
70406;SDS011;57821;52.202;0.154;2023-04-24T11:08:42;6.47;;;2.10;;
70406;SDS011;57821;52.202;0.154;2023-04-24T11:11:15;10.10;;;2.33;;
70406;SDS011;57821;52.202;0.154;2023-04-24T11:24:24;12.48;;;2.42;;
70406;SDS011;57821;52.202;0.154;2023-04-24T11:27:05;10.00;;;2.00;;
70406;SDS011;57821;52.202;0.154;2023-04-24T11:29:42;10.35;;;2.22;;
70406;SDS011;57821;52.202;0.154;2023-04-24T11:32:14;10.52;;;2.22;;
70406;SDS011;57821;52.202;0.154;2023-04-24T11:37:45;7.43;;;1.50;;
70406;SDS011;57821;52.202;0.154;2023-04-24T11:40:23;9.55;;;1.80;;
70406;SDS011;57821;52.202;0.154;2023-04-24T11:42:51;10.80;;;1.60;;
70406;SDS011;57821;52.202;0.154;2023-04-24T11:45:21;7.55;;;1.98;;
70406;SDS011;57821;52.202;0.154;2023-04-24T11:47:49;9.07;;;2.10;;
70406;SDS011;57821;52.202;0.154;2023-04-24T11:50:17;6.82;;;1.75;;
70406;SDS011;57821;52.202;0.154;2023-04-24T11:52:46;6.18;;;1.88;;
70406;SDS011;57821;52.202;0.154;2023-04-24T11:57:44;10.18;;;2.20;;
70406;SDS011;57821;52.202;0.154;2023-04-24T12:00:16;8.90;;;2.25;;
70406;SDS011;57821;52.202;0.154;2023-04-24T12:02:46;8.90;;;1.98;;
70406;SDS011;57821;52.202;0.154;2023-04-24T12:05:20;11.25;;;2.13;;
70406;SDS011;57821;52.202;0.154;2023-04-24T12:07:48;7.53;;;1.83;;
70406;SDS011;57821;52.202;0.154;2023-04-24T12:10:19;7.57;;;2.10;;
70406;SDS011;57821;52.202;0.154;2023-04-24T12:12:57;14.13;;;2.67;;
70406;SDS011;57821;52.202;0.154;2023-04-24T12:15:24;9.23;;;2.17;;
70406;SDS011;57821;52.202;0.154;2023-04-24T12:17:52;9.57;;;1.98;;
70406;SDS011;57821;52.202;0.154;2023-04-24T12:20:40;8.95;;;2.53;;
70406;SDS011;57821;52.202;0.154;2023-04-24T12:23:06;8.60;;;2.17;;
70406;SDS011;57821;52.202;0.154;2023-04-24T12:25:33;12.30;;;2.65;;
70406;SDS011;57821;52.202;0.154;2023-04-24T12:30:31;7.32;;;2.28;;
70406;SDS011;57821;52.202;0.154;2023-04-24T12:32:59;12.68;;;2.65;;
70406;SDS011;57821;52.202;0.154;2023-04-24T12:35:30;8.93;;;2.03;;
70406;SDS011;57821;52.202;0.154;2023-04-24T12:38:08;7.80;;;2.83;;
70406;SDS011;57821;52.202;0.154;2023-04-24T12:40:36;7.97;;;2.38;;
70406;SDS011;57821;52.202;0.154;2023-04-24T12:43:12;11.52;;;2.05;;
70406;SDS011;57821;52.202;0.154;2023-04-24T12:45:43;8.32;;;2.17;;
70406;SDS011;57821;52.202;0.154;2023-04-24T12:48:10;7.10;;;2.22;;
70406;SDS011;57821;52.202;0.154;2023-04-24T12:50:37;10.00;;;1.90;;
70406;SDS011;57821;52.202;0.154;2023-04-24T12:53:05;8.57;;;2.10;;
70406;SDS011;57821;52.202;0.154;2023-04-24T12:55:32;9.48;;;2.33;;
70406;SDS011;57821;52.202;0.154;2023-04-24T12:57:59;8.95;;;2.47;;
70406;SDS011;57821;52.202;0.154;2023-04-24T13:00:26;6.65;;;1.70;;
70406;SDS011;57821;52.202;0.154;2023-04-24T13:02:52;8.73;;;1.92;;
70406;SDS011;57821;52.202;0.154;2023-04-24T13:05:19;15.20;;;3.40;;
70406;SDS011;57821;52.202;0.154;2023-04-24T13:07:48;9.23;;;1.83;;
70406;SDS011;57821;52.202;0.154;2023-04-24T13:10:15;6.75;;;1.88;;
70406;SDS011;57821;52.202;0.154;2023-04-24T13:12:41;8.93;;;2.13;;
70406;SDS011;57821;52.202;0.154;2023-04-24T13:15:08;9.52;;;1.98;;
70406;SDS011;57821;52.202;0.154;2023-04-24T13:17:35;8.98;;;1.90;;
70406;SDS011;57821;52.202;0.154;2023-04-24T13:20:03;8.52;;;1.80;;
70406;SDS011;57821;52.202;0.154;2023-04-24T13:22:29;10.75;;;1.80;;
70406;SDS011;57821;52.202;0.154;2023-04-24T13:24:56;11.18;;;2.28;;
70406;SDS011;57821;52.202;0.154;2023-04-24T13:27:23;7.30;;;2.78;;
70406;SDS011;57821;52.202;0.154;2023-04-24T13:29:49;7.90;;;2.47;;
70406;SDS011;57821;52.202;0.154;2023-04-24T13:32:16;8.93;;;1.95;;
70406;SDS011;57821;52.202;0.154;2023-04-24T13:34:43;8.75;;;2.20;;
70406;SDS011;57821;52.202;0.154;2023-04-24T13:37:10;9.35;;;2.03;;
70406;SDS011;57821;52.202;0.154;2023-04-24T13:39:37;8.27;;;2.20;;
70406;SDS011;57821;52.202;0.154;2023-04-24T13:42:03;10.90;;;2.50;;
70406;SDS011;57821;52.202;0.154;2023-04-24T13:44:30;9.75;;;2.45;;
70406;SDS011;57821;52.202;0.154;2023-04-24T13:46:57;10.32;;;2.10;;
70406;SDS011;57821;52.202;0.154;2023-04-24T13:49:24;10.02;;;2.00;;
70406;SDS011;57821;52.202;0.154;2023-04-24T13:51:52;8.77;;;1.73;;
70406;SDS011;57821;52.202;0.154;2023-04-24T13:54:21;9.55;;;2.17;;
70406;SDS011;57821;52.202;0.154;2023-04-24T13:56:47;11.90;;;1.90;;
70406;SDS011;57821;52.202;0.154;2023-04-24T13:59:14;9.38;;;2.00;;
70406;SDS011;57821;52.202;0.154;2023-04-24T14:01:40;10.18;;;1.98;;
70406;SDS011;57821;52.202;0.154;2023-04-24T14:04:07;12.50;;;2.92;;
70406;SDS011;57821;52.202;0.154;2023-04-24T14:06:34;9.80;;;2.30;;
70406;SDS011;57821;52.202;0.154;2023-04-24T14:09:01;7.95;;;1.88;;
70406;SDS011;57821;52.202;0.154;2023-04-24T14:11:28;9.23;;;2.40;;
70406;SDS011;57821;52.202;0.154;2023-04-24T14:13:55;8.10;;;1.92;;
70406;SDS011;57821;52.202;0.154;2023-04-24T14:16:22;11.00;;;2.55;;
70406;SDS011;57821;52.202;0.154;2023-04-24T14:18:48;10.55;;;2.60;;
70406;SDS011;57821;52.202;0.154;2023-04-24T14:21:15;11.90;;;2.60;;
70406;SDS011;57821;52.202;0.154;2023-04-24T14:23:41;9.07;;;2.30;;
70406;SDS011;57821;52.202;0.154;2023-04-24T14:26:11;7.88;;;2.30;;
70406;SDS011;57821;52.202;0.154;2023-04-24T14:28:38;16.90;;;2.85;;
70406;SDS011;57821;52.202;0.154;2023-04-24T14:31:04;11.10;;;2.45;;
70406;SDS011;57821;52.202;0.154;2023-04-24T14:33:31;9.70;;;2.50;;
70406;SDS011;57821;52.202;0.154;2023-04-24T14:35:57;6.90;;;2.22;;
70406;SDS011;57821;52.202;0.154;2023-04-24T14:38:24;9.90;;;2.40;;
70406;SDS011;57821;52.202;0.154;2023-04-24T14:40:51;5.95;;;2.00;;
70406;SDS011;57821;52.202;0.154;2023-04-24T14:43:33;7.95;;;2.30;;
70406;SDS011;57821;52.202;0.154;2023-04-24T14:45:59;9.30;;;2.65;;
70406;SDS011;57821;52.202;0.154;2023-04-24T14:48:26;6.18;;;1.90;;
70406;SDS011;57821;52.202;0.154;2023-04-24T14:50:53;9.23;;;2.83;;
70406;SDS011;57821;52.202;0.154;2023-04-24T14:53:19;7.10;;;2.30;;
70406;SDS011;57821;52.202;0.154;2023-04-24T14:55:46;13.45;;;2.90;;
70406;SDS011;57821;52.202;0.154;2023-04-24T14:58:12;9.45;;;2.20;;
70406;SDS011;57821;52.202;0.154;2023-04-24T15:00:39;6.00;;;1.80;;
70406;SDS011;57821;52.202;0.154;2023-04-24T15:03:06;6.85;;;2.15;;
70406;SDS011;57821;52.202;0.154;2023-04-24T15:05:33;11.68;;;2.70;;
70406;SDS011;57821;52.202;0.154;2023-04-24T15:08:00;12.50;;;3.58;;
70406;SDS011;57821;52.202;0.154;2023-04-24T15:10:27;16.88;;;3.97;;
70406;SDS011;57821;52.202;0.154;2023-04-24T15:12:54;11.23;;;3.15;;
70406;SDS011;57821;52.202;0.154;2023-04-24T15:15:21;14.90;;;3.92;;
70406;SDS011;57821;52.202;0.154;2023-04-24T15:17:47;10.15;;;3.53;;